Terminal Aerodrome Forecast
Issued by NWS Cleveland, OH

Home | Current Version | Previous Version | Graphics & Text | Print | Product List | Glossary On
Versions: 1 2 3 4 5 6 7 8 9 10 11 12 13 14 15 16 17 18 19 20 21 22
055
FTUS41 KCLE 301038 AAA
TAFCAK
TAF AMD
KCAK 301038Z 3011/0106 15015KT P6SM -SHRA OVC080
      TEMPO 3011/3014 4SM -SHRA BR OVC015
     FM301400 18009KT P6SM OVC020
     FM302200 24012KT 6SM -SHRA BKN020
     FM010200 26012KT P6SM FEW025=

USA.gov is the U.S. government's official web portal to all federal, state and local government web resources and services.